sensor_id;sensor_type;location;lat;lon;timestamp;P1;durP1;ratioP1;P2;durP2;ratioP2
30723;SDS011;17473;52.286;20.930;2022-11-02T00:00:42;42.63;;;25.30;;
30723;SDS011;17473;52.286;20.930;2022-11-02T00:03:10;43.13;;;23.50;;
30723;SDS011;17473;52.286;20.930;2022-11-02T00:05:37;48.13;;;25.52;;
30723;SDS011;17473;52.286;20.930;2022-11-02T00:08:04;45.17;;;26.02;;
30723;SDS011;17473;52.286;20.930;2022-11-02T00:10:31;45.70;;;25.27;;
30723;SDS011;17473;52.286;20.930;2022-11-02T00:12:58;43.00;;;24.25;;
30723;SDS011;17473;52.286;20.930;2022-11-02T00:15:25;45.58;;;24.33;;
30723;SDS011;17473;52.286;20.930;2022-11-02T00:18:02;50.40;;;25.98;;
30723;SDS011;17473;52.286;20.930;2022-11-02T00:20:34;47.92;;;26.00;;
30723;SDS011;17473;52.286;20.930;2022-11-02T00:23:04;45.88;;;24.33;;
30723;SDS011;17473;52.286;20.930;2022-11-02T00:25:33;48.85;;;25.20;;
30723;SDS011;17473;52.286;20.930;2022-11-02T00:28:03;49.88;;;25.90;;
30723;SDS011;17473;52.286;20.930;2022-11-02T00:30:30;51.90;;;25.60;;
30723;SDS011;17473;52.286;20.930;2022-11-02T00:32:57;50.05;;;25.02;;
30723;SDS011;17473;52.286;20.930;2022-11-02T00:35:24;54.92;;;27.65;;
30723;SDS011;17473;52.286;20.930;2022-11-02T00:37:51;54.30;;;25.70;;
30723;SDS011;17473;52.286;20.930;2022-11-02T00:40:18;44.78;;;24.70;;
30723;SDS011;17473;52.286;20.930;2022-11-02T00:42:45;47.60;;;25.65;;
30723;SDS011;17473;52.286;20.930;2022-11-02T00:45:12;50.05;;;25.30;;
30723;SDS011;17473;52.286;20.930;2022-11-02T00:47:39;45.40;;;25.73;;
30723;SDS011;17473;52.286;20.930;2022-11-02T00:50:07;48.00;;;25.67;;
30723;SDS011;17473;52.286;20.930;2022-11-02T00:52:34;46.60;;;26.30;;
30723;SDS011;17473;52.286;20.930;2022-11-02T00:55:06;44.63;;;24.58;;
30723;SDS011;17473;52.286;20.930;2022-11-02T00:57:34;45.60;;;24.17;;
30723;SDS011;17473;52.286;20.930;2022-11-02T01:00:06;42.78;;;25.23;;
30723;SDS011;17473;52.286;20.930;2022-11-02T01:02:35;44.08;;;24.48;;
30723;SDS011;17473;52.286;20.930;2022-11-02T01:05:03;49.85;;;25.35;;
30723;SDS011;17473;52.286;20.930;2022-11-02T01:07:34;50.90;;;25.70;;
30723;SDS011;17473;52.286;20.930;2022-11-02T01:10:03;46.80;;;26.25;;
30723;SDS011;17473;52.286;20.930;2022-11-02T01:12:37;54.83;;;27.40;;
30723;SDS011;17473;52.286;20.930;2022-11-02T01:15:06;48.05;;;26.25;;
30723;SDS011;17473;52.286;20.930;2022-11-02T01:17:35;50.42;;;25.10;;
30723;SDS011;17473;52.286;20.930;2022-11-02T01:20:03;46.17;;;25.02;;
30723;SDS011;17473;52.286;20.930;2022-11-02T01:22:31;50.70;;;27.25;;
30723;SDS011;17473;52.286;20.930;2022-11-02T01:24:58;43.38;;;24.27;;
30723;SDS011;17473;52.286;20.930;2022-11-02T01:27:25;48.85;;;26.30;;
30723;SDS011;17473;52.286;20.930;2022-11-02T01:29:52;50.30;;;27.25;;
30723;SDS011;17473;52.286;20.930;2022-11-02T01:32:19;46.85;;;25.65;;
30723;SDS011;17473;52.286;20.930;2022-11-02T01:34:46;48.30;;;26.23;;
30723;SDS011;17473;52.286;20.930;2022-11-02T01:37:13;44.40;;;26.52;;
30723;SDS011;17473;52.286;20.930;2022-11-02T01:39:40;48.47;;;27.55;;
30723;SDS011;17473;52.286;20.930;2022-11-02T01:42:21;50.05;;;27.20;;
30723;SDS011;17473;52.286;20.930;2022-11-02T01:44:50;47.47;;;26.95;;
30723;SDS011;17473;52.286;20.930;2022-11-02T01:47:22;46.28;;;24.30;;
30723;SDS011;17473;52.286;20.930;2022-11-02T01:50:02;49.60;;;26.95;;
30723;SDS011;17473;52.286;20.930;2022-11-02T01:52:41;49.95;;;27.00;;
30723;SDS011;17473;52.286;20.930;2022-11-02T01:55:17;49.38;;;27.25;;
30723;SDS011;17473;52.286;20.930;2022-11-02T01:57:54;49.40;;;27.80;;
30723;SDS011;17473;52.286;20.930;2022-11-02T02:00:30;54.13;;;28.05;;
30723;SDS011;17473;52.286;20.930;2022-11-02T02:03:07;59.85;;;28.75;;
30723;SDS011;17473;52.286;20.930;2022-11-02T02:08:45;55.47;;;28.98;;
30723;SDS011;17473;52.286;20.930;2022-11-02T02:11:25;59.10;;;30.70;;
30723;SDS011;17473;52.286;20.930;2022-11-02T02:13:57;57.55;;;29.65;;
30723;SDS011;17473;52.286;20.930;2022-11-02T02:22:33;66.80;;;32.10;;
30723;SDS011;17473;52.286;20.930;2022-11-02T02:31:39;67.93;;;31.88;;
30723;SDS011;17473;52.286;20.930;2022-11-02T02:36:47;66.07;;;33.63;;
30723;SDS011;17473;52.286;20.930;2022-11-02T02:42:22;77.80;;;35.30;;
30723;SDS011;17473;52.286;20.930;2022-11-02T02:47:25;76.18;;;35.72;;
30723;SDS011;17473;52.286;20.930;2022-11-02T02:49:57;82.32;;;38.70;;
30723;SDS011;17473;52.286;20.930;2022-11-02T02:52:55;81.50;;;35.67;;
30723;SDS011;17473;52.286;20.930;2022-11-02T02:55:28;75.32;;;36.97;;
30723;SDS011;17473;52.286;20.930;2022-11-02T02:58:01;88.10;;;39.65;;
30723;SDS011;17473;52.286;20.930;2022-11-02T03:00:29;78.55;;;36.58;;
30723;SDS011;17473;52.286;20.930;2022-11-02T03:03:02;77.20;;;38.70;;
30723;SDS011;17473;52.286;20.930;2022-11-02T03:05:34;78.82;;;39.53;;
30723;SDS011;17473;52.286;20.930;2022-11-02T03:08:06;81.63;;;38.42;;
30723;SDS011;17473;52.286;20.930;2022-11-02T03:10:47;87.57;;;39.03;;
30723;SDS011;17473;52.286;20.930;2022-11-02T03:17:23;83.88;;;39.17;;
30723;SDS011;17473;52.286;20.930;2022-11-02T03:19:56;86.70;;;39.90;;
30723;SDS011;17473;52.286;20.930;2022-11-02T03:29:46;77.18;;;37.88;;
30723;SDS011;17473;52.286;20.930;2022-11-02T03:33:01;79.75;;;38.95;;
30723;SDS011;17473;52.286;20.930;2022-11-02T03:35:35;90.55;;;41.25;;
30723;SDS011;17473;52.286;20.930;2022-11-02T03:38:31;92.85;;;40.55;;
30723;SDS011;17473;52.286;20.930;2022-11-02T03:41:14;88.03;;;38.78;;
30723;SDS011;17473;52.286;20.930;2022-11-02T03:43:44;91.10;;;41.33;;
30723;SDS011;17473;52.286;20.930;2022-11-02T03:46:14;85.10;;;41.35;;
30723;SDS011;17473;52.286;20.930;2022-11-02T03:48:45;91.45;;;41.50;;
30723;SDS011;17473;52.286;20.930;2022-11-02T03:51:17;86.70;;;40.47;;
30723;SDS011;17473;52.286;20.930;2022-11-02T03:53:57;91.13;;;40.83;;
30723;SDS011;17473;52.286;20.930;2022-11-02T03:56:38;83.85;;;41.35;;
30723;SDS011;17473;52.286;20.930;2022-11-02T03:59:11;104.30;;;44.60;;
30723;SDS011;17473;52.286;20.930;2022-11-02T04:01:39;91.85;;;41.30;;
30723;SDS011;17473;52.286;20.930;2022-11-02T04:04:10;99.70;;;44.33;;
30723;SDS011;17473;52.286;20.930;2022-11-02T04:06:38;100.50;;;43.63;;
30723;SDS011;17473;52.286;20.930;2022-11-02T04:09:07;96.25;;;44.15;;
30723;SDS011;17473;52.286;20.930;2022-11-02T04:11:36;108.28;;;45.40;;
30723;SDS011;17473;52.286;20.930;2022-11-02T04:14:22;96.18;;;43.67;;
30723;SDS011;17473;52.286;20.930;2022-11-02T04:17:05;100.43;;;45.55;;
30723;SDS011;17473;52.286;20.930;2022-11-02T04:19:59;96.28;;;44.50;;
30723;SDS011;17473;52.286;20.930;2022-11-02T04:22:26;109.13;;;48.35;;
30723;SDS011;17473;52.286;20.930;2022-11-02T04:25:12;107.20;;;46.60;;
30723;SDS011;17473;52.286;20.930;2022-11-02T04:27:44;103.28;;;46.25;;
30723;SDS011;17473;52.286;20.930;2022-11-02T04:30:19;102.38;;;45.65;;
30723;SDS011;17473;52.286;20.930;2022-11-02T04:32:48;105.05;;;46.35;;
30723;SDS011;17473;52.286;20.930;2022-11-02T04:35:35;105.43;;;45.67;;
30723;SDS011;17473;52.286;20.930;2022-11-02T04:38:03;110.57;;;47.40;;
30723;SDS011;17473;52.286;20.930;2022-11-02T04:40:48;110.97;;;46.88;;
30723;SDS011;17473;52.286;20.930;2022-11-02T04:43:35;111.88;;;48.13;;
30723;SDS011;17473;52.286;20.930;2022-11-02T04:46:02;115.07;;;47.22;;
30723;SDS011;17473;52.286;20.930;2022-11-02T04:48:29;104.82;;;49.40;;
30723;SDS011;17473;52.286;20.930;2022-11-02T04:50:56;104.15;;;47.80;;
30723;SDS011;17473;52.286;20.930;2022-11-02T04:53:23;104.97;;;45.72;;
30723;SDS011;17473;52.286;20.930;2022-11-02T04:55:51;101.18;;;46.55;;
30723;SDS011;17473;52.286;20.930;2022-11-02T04:58:18;106.28;;;47.75;;
30723;SDS011;17473;52.286;20.930;2022-11-02T05:00:45;108.85;;;47.95;;
30723;SDS011;17473;52.286;20.930;2022-11-02T05:03:12;114.47;;;48.78;;
30723;SDS011;17473;52.286;20.930;2022-11-02T05:05:39;109.43;;;48.42;;
30723;SDS011;17473;52.286;20.930;2022-11-02T05:08:06;115.65;;;49.95;;
30723;SDS011;17473;52.286;20.930;2022-11-02T05:10:33;112.95;;;50.47;;
30723;SDS011;17473;52.286;20.930;2022-11-02T05:13:00;119.93;;;51.65;;
30723;SDS011;17473;52.286;20.930;2022-11-02T05:15:27;113.75;;;50.47;;
30723;SDS011;17473;52.286;20.930;2022-11-02T05:17:54;107.28;;;47.30;;
30723;SDS011;17473;52.286;20.930;2022-11-02T05:20:21;107.72;;;48.22;;
30723;SDS011;17473;52.286;20.930;2022-11-02T05:22:48;114.68;;;49.88;;
30723;SDS011;17473;52.286;20.930;2022-11-02T05:25:15;108.28;;;49.63;;
30723;SDS011;17473;52.286;20.930;2022-11-02T05:27:42;109.82;;;50.05;;
30723;SDS011;17473;52.286;20.930;2022-11-02T05:30:09;111.63;;;49.72;;
30723;SDS011;17473;52.286;20.930;2022-11-02T05:32:37;118.80;;;48.42;;
30723;SDS011;17473;52.286;20.930;2022-11-02T05:35:04;110.13;;;49.70;;
30723;SDS011;17473;52.286;20.930;2022-11-02T05:37:31;98.85;;;47.22;;
30723;SDS011;17473;52.286;20.930;2022-11-02T05:39:58;106.07;;;48.00;;
30723;SDS011;17473;52.286;20.930;2022-11-02T05:42:25;104.35;;;47.17;;
30723;SDS011;17473;52.286;20.930;2022-11-02T05:45:20;108.88;;;47.40;;
30723;SDS011;17473;52.286;20.930;2022-11-02T06:01:53;112.75;;;46.90;;
30723;SDS011;17473;52.286;20.930;2022-11-02T06:04:20;113.18;;;47.10;;
30723;SDS011;17473;52.286;20.930;2022-11-02T06:07:15;102.50;;;46.40;;
30723;SDS011;17473;52.286;20.930;2022-11-02T06:10:09;106.03;;;45.83;;
30723;SDS011;17473;52.286;20.930;2022-11-02T06:13:04;94.35;;;44.17;;
30723;SDS011;17473;52.286;20.930;2022-11-02T06:15:59;119.97;;;45.72;;
30723;SDS011;17473;52.286;20.930;2022-11-02T06:18:28;89.53;;;42.90;;
30723;SDS011;17473;52.286;20.930;2022-11-02T06:20:57;93.57;;;42.22;;
30723;SDS011;17473;52.286;20.930;2022-11-02T06:23:51;105.93;;;42.63;;
30723;SDS011;17473;52.286;20.930;2022-11-02T06:26:46;98.72;;;40.65;;
30723;SDS011;17473;52.286;20.930;2022-11-02T06:29:14;89.13;;;44.85;;
30723;SDS011;17473;52.286;20.930;2022-11-02T06:31:41;106.15;;;45.10;;
30723;SDS011;17473;52.286;20.930;2022-11-02T06:34:35;102.05;;;42.97;;
30723;SDS011;17473;52.286;20.930;2022-11-02T06:37:31;93.85;;;39.67;;
30723;SDS011;17473;52.286;20.930;2022-11-02T06:40:27;91.60;;;38.63;;
30723;SDS011;17473;52.286;20.930;2022-11-02T06:43:21;89.50;;;38.25;;
30723;SDS011;17473;52.286;20.930;2022-11-02T06:46:17;89.50;;;36.83;;
30723;SDS011;17473;52.286;20.930;2022-11-02T06:49:11;89.32;;;37.70;;
30723;SDS011;17473;52.286;20.930;2022-11-02T06:51:42;93.85;;;36.83;;
30723;SDS011;17473;52.286;20.930;2022-11-02T06:54:09;85.72;;;38.72;;
30723;SDS011;17473;52.286;20.930;2022-11-02T06:57:03;80.38;;;36.10;;
30723;SDS011;17473;52.286;20.930;2022-11-02T06:59:30;89.85;;;34.63;;
30723;SDS011;17473;52.286;20.930;2022-11-02T07:01:57;84.00;;;37.08;;
30723;SDS011;17473;52.286;20.930;2022-11-02T07:04:24;83.70;;;35.35;;
30723;SDS011;17473;52.286;20.930;2022-11-02T07:06:51;75.93;;;34.25;;
30723;SDS011;17473;52.286;20.930;2022-11-02T07:09:18;73.22;;;34.20;;
30723;SDS011;17473;52.286;20.930;2022-11-02T07:11:45;75.90;;;33.75;;
30723;SDS011;17473;52.286;20.930;2022-11-02T07:14:12;69.57;;;34.50;;
30723;SDS011;17473;52.286;20.930;2022-11-02T07:16:39;71.65;;;34.05;;
30723;SDS011;17473;52.286;20.930;2022-11-02T07:19:06;64.57;;;31.88;;
30723;SDS011;17473;52.286;20.930;2022-11-02T07:21:33;61.72;;;31.98;;
30723;SDS011;17473;52.286;20.930;2022-11-02T07:24:00;58.67;;;31.40;;
30723;SDS011;17473;52.286;20.930;2022-11-02T07:26:27;60.30;;;30.05;;
30723;SDS011;17473;52.286;20.930;2022-11-02T07:28:54;54.53;;;28.17;;
30723;SDS011;17473;52.286;20.930;2022-11-02T07:31:24;50.70;;;28.20;;
30723;SDS011;17473;52.286;20.930;2022-11-02T07:33:51;52.97;;;27.33;;
30723;SDS011;17473;52.286;20.930;2022-11-02T07:36:18;47.58;;;25.92;;
30723;SDS011;17473;52.286;20.930;2022-11-02T07:38:45;51.40;;;26.90;;
30723;SDS011;17473;52.286;20.930;2022-11-02T07:41:12;44.75;;;25.48;;
30723;SDS011;17473;52.286;20.930;2022-11-02T07:43:39;51.03;;;24.63;;
30723;SDS011;17473;52.286;20.930;2022-11-02T07:46:09;51.83;;;24.75;;
30723;SDS011;17473;52.286;20.930;2022-11-02T07:48:36;44.50;;;24.05;;
30723;SDS011;17473;52.286;20.930;2022-11-02T07:51:03;42.83;;;24.48;;
30723;SDS011;17473;52.286;20.930;2022-11-02T07:53:33;44.38;;;23.60;;
30723;SDS011;17473;52.286;20.930;2022-11-02T07:56:00;42.33;;;23.15;;
30723;SDS011;17473;52.286;20.930;2022-11-02T07:58:27;44.88;;;23.60;;
30723;SDS011;17473;52.286;20.930;2022-11-02T08:00:56;38.95;;;22.52;;
30723;SDS011;17473;52.286;20.930;2022-11-02T08:03:25;45.40;;;25.20;;
30723;SDS011;17473;52.286;20.930;2022-11-02T08:05:53;45.35;;;23.40;;
30723;SDS011;17473;52.286;20.930;2022-11-02T08:08:21;40.95;;;22.05;;
30723;SDS011;17473;52.286;20.930;2022-11-02T08:10:50;43.75;;;23.65;;
30723;SDS011;17473;52.286;20.930;2022-11-02T08:13:19;43.75;;;23.83;;
30723;SDS011;17473;52.286;20.930;2022-11-02T08:15:49;47.45;;;24.55;;
30723;SDS011;17473;52.286;20.930;2022-11-02T08:18:20;44.17;;;24.05;;
30723;SDS011;17473;52.286;20.930;2022-11-02T08:20:50;43.70;;;22.27;;
30723;SDS011;17473;52.286;20.930;2022-11-02T08:23:18;42.47;;;22.35;;
30723;SDS011;17473;52.286;20.930;2022-11-02T08:25:46;44.17;;;23.27;;
30723;SDS011;17473;52.286;20.930;2022-11-02T08:28:16;40.30;;;23.23;;
30723;SDS011;17473;52.286;20.930;2022-11-02T08:30:51;42.03;;;22.27;;
30723;SDS011;17473;52.286;20.930;2022-11-02T08:33:18;38.40;;;22.33;;
30723;SDS011;17473;52.286;20.930;2022-11-02T08:35:46;39.70;;;22.92;;
30723;SDS011;17473;52.286;20.930;2022-11-02T08:38:14;39.72;;;21.65;;
30723;SDS011;17473;52.286;20.930;2022-11-02T08:40:41;36.55;;;21.50;;
30723;SDS011;17473;52.286;20.930;2022-11-02T08:43:10;37.15;;;20.88;;
30723;SDS011;17473;52.286;20.930;2022-11-02T08:45:40;42.10;;;22.02;;
30723;SDS011;17473;52.286;20.930;2022-11-02T08:48:29;37.10;;;21.48;;
30723;SDS011;17473;52.286;20.930;2022-11-02T08:50:57;36.65;;;20.63;;
30723;SDS011;17473;52.286;20.930;2022-11-02T08:53:24;40.15;;;20.65;;
30723;SDS011;17473;52.286;20.930;2022-11-02T08:55:51;41.95;;;22.42;;
30723;SDS011;17473;52.286;20.930;2022-11-02T08:58:18;39.53;;;22.30;;
30723;SDS011;17473;52.286;20.930;2022-11-02T09:00:45;35.90;;;20.08;;
30723;SDS011;17473;52.286;20.930;2022-11-02T09:03:13;33.33;;;20.02;;
30723;SDS011;17473;52.286;20.930;2022-11-02T09:05:41;39.38;;;20.65;;
30723;SDS011;17473;52.286;20.930;2022-11-02T09:08:12;39.97;;;21.60;;
30723;SDS011;17473;52.286;20.930;2022-11-02T09:10:45;32.65;;;19.65;;
30723;SDS011;17473;52.286;20.930;2022-11-02T09:13:16;38.22;;;20.33;;
30723;SDS011;17473;52.286;20.930;2022-11-02T09:15:51;37.75;;;20.13;;
30723;SDS011;17473;52.286;20.930;2022-11-02T09:18:19;31.85;;;20.10;;
30723;SDS011;17473;52.286;20.930;2022-11-02T09:20:48;39.22;;;20.48;;
30723;SDS011;17473;52.286;20.930;2022-11-02T09:23:19;41.97;;;20.90;;
30723;SDS011;17473;52.286;20.930;2022-11-02T09:25:47;38.58;;;19.60;;
30723;SDS011;17473;52.286;20.930;2022-11-02T09:28:15;35.05;;;19.50;;
30723;SDS011;17473;52.286;20.930;2022-11-02T09:30:42;32.65;;;20.00;;
30723;SDS011;17473;52.286;20.930;2022-11-02T09:33:09;35.08;;;21.40;;
30723;SDS011;17473;52.286;20.930;2022-11-02T09:35:37;33.97;;;20.65;;
30723;SDS011;17473;52.286;20.930;2022-11-02T09:38:07;31.45;;;19.65;;
30723;SDS011;17473;52.286;20.930;2022-11-02T09:40:38;41.65;;;23.50;;
30723;SDS011;17473;52.286;20.930;2022-11-02T09:46:26;30.58;;;20.50;;
30723;SDS011;17473;52.286;20.930;2022-11-02T09:49:03;35.20;;;20.38;;
30723;SDS011;17473;52.286;20.930;2022-11-02T09:51:41;30.45;;;18.55;;
30723;SDS011;17473;52.286;20.930;2022-11-02T09:57:15;33.20;;;19.17;;
30723;SDS011;17473;52.286;20.930;2022-11-02T09:59:58;32.20;;;20.83;;
30723;SDS011;17473;52.286;20.930;2022-11-02T10:19:48;38.58;;;19.80;;
30723;SDS011;17473;52.286;20.930;2022-11-02T10:22:33;33.13;;;19.48;;
30723;SDS011;17473;52.286;20.930;2022-11-02T10:25:06;35.15;;;21.20;;
30723;SDS011;17473;52.286;20.930;2022-11-02T10:27:39;31.83;;;19.90;;
30723;SDS011;17473;52.286;20.930;2022-11-02T10:30:09;34.33;;;19.45;;
30723;SDS011;17473;52.286;20.930;2022-11-02T10:32:46;34.65;;;20.67;;
30723;SDS011;17473;52.286;20.930;2022-11-02T10:35:19;36.03;;;19.45;;
30723;SDS011;17473;52.286;20.930;2022-11-02T10:38:15;35.10;;;19.23;;
30723;SDS011;17473;52.286;20.930;2022-11-02T10:44:53;34.17;;;18.15;;
30723;SDS011;17473;52.286;20.930;2022-11-02T10:51:21;37.40;;;19.50;;
30723;SDS011;17473;52.286;20.930;2022-11-02T10:57:41;33.92;;;19.35;;
30723;SDS011;17473;52.286;20.930;2022-11-02T11:03:08;30.60;;;18.88;;
30723;SDS011;17473;52.286;20.930;2022-11-02T11:11:17;28.40;;;17.35;;
30723;SDS011;17473;52.286;20.930;2022-11-02T11:17:02;29.63;;;17.90;;
30723;SDS011;17473;52.286;20.930;2022-11-02T11:20:23;33.40;;;17.60;;
30723;SDS011;17473;52.286;20.930;2022-11-02T11:25:57;30.65;;;17.10;;
30723;SDS011;17473;52.286;20.930;2022-11-02T11:28:44;31.88;;;16.55;;
30723;SDS011;17473;52.286;20.930;2022-11-02T11:31:20;31.23;;;17.50;;
30723;SDS011;17473;52.286;20.930;2022-11-02T11:33:49;30.88;;;15.85;;
30723;SDS011;17473;52.286;20.930;2022-11-02T11:36:25;22.75;;;16.13;;
30723;SDS011;17473;52.286;20.930;2022-11-02T11:39:06;25.85;;;15.77;;
30723;SDS011;17473;52.286;20.930;2022-11-02T11:41:45;26.67;;;16.15;;
30723;SDS011;17473;52.286;20.930;2022-11-02T11:44:13;23.90;;;15.05;;
30723;SDS011;17473;52.286;20.930;2022-11-02T11:46:41;25.10;;;14.75;;
30723;SDS011;17473;52.286;20.930;2022-11-02T11:49:19;23.48;;;14.13;;
30723;SDS011;17473;52.286;20.930;2022-11-02T11:52:21;23.48;;;13.05;;
30723;SDS011;17473;52.286;20.930;2022-11-02T11:54:58;23.08;;;12.35;;
30723;SDS011;17473;52.286;20.930;2022-11-02T11:57:31;21.63;;;12.82;;
30723;SDS011;17473;52.286;20.930;2022-11-02T12:00:00;19.65;;;12.32;;
30723;SDS011;17473;52.286;20.930;2022-11-02T12:03:00;22.75;;;13.52;;
30723;SDS011;17473;52.286;20.930;2022-11-02T12:05:49;22.95;;;12.57;;
30723;SDS011;17473;52.286;20.930;2022-11-02T12:14:15;15.93;;;10.77;;
30723;SDS011;17473;52.286;20.930;2022-11-02T12:30:18;22.02;;;13.32;;
30723;SDS011;17473;52.286;20.930;2022-11-02T12:39:32;21.45;;;12.75;;
30723;SDS011;17473;52.286;20.930;2022-11-02T12:42:36;23.88;;;13.48;;
30723;SDS011;17473;52.286;20.930;2022-11-02T12:45:16;22.67;;;13.05;;
30723;SDS011;17473;52.286;20.930;2022-11-02T12:47:55;23.92;;;13.20;;
30723;SDS011;17473;52.286;20.930;2022-11-02T12:50:28;20.33;;;13.85;;
30723;SDS011;17473;52.286;20.930;2022-11-02T12:53:08;18.25;;;11.77;;
30723;SDS011;17473;52.286;20.930;2022-11-02T12:55:55;22.30;;;13.45;;
30723;SDS011;17473;52.286;20.930;2022-11-02T12:58:32;18.60;;;11.93;;
30723;SDS011;17473;52.286;20.930;2022-11-02T13:01:16;24.15;;;13.57;;
30723;SDS011;17473;52.286;20.930;2022-11-02T13:06:42;21.40;;;12.60;;
30723;SDS011;17473;52.286;20.930;2022-11-02T13:12:21;20.45;;;12.63;;
30723;SDS011;17473;52.286;20.930;2022-11-02T13:14:50;18.60;;;13.05;;
30723;SDS011;17473;52.286;20.930;2022-11-02T13:20:17;26.58;;;13.38;;
30723;SDS011;17473;52.286;20.930;2022-11-02T13:23:04;23.25;;;13.90;;
30723;SDS011;17473;52.286;20.930;2022-11-02T13:25:54;21.65;;;13.40;;
30723;SDS011;17473;52.286;20.930;2022-11-02T13:28:28;28.52;;;13.27;;
30723;SDS011;17473;52.286;20.930;2022-11-02T13:31:14;22.52;;;13.32;;
30723;SDS011;17473;52.286;20.930;2022-11-02T13:33:57;25.27;;;13.02;;
30723;SDS011;17473;52.286;20.930;2022-11-02T13:36:29;21.00;;;13.10;;
30723;SDS011;17473;52.286;20.930;2022-11-02T13:39:08;19.60;;;12.65;;
30723;SDS011;17473;52.286;20.930;2022-11-02T13:48:13;21.60;;;14.20;;
30723;SDS011;17473;52.286;20.930;2022-11-02T13:51:03;20.42;;;12.93;;
30723;SDS011;17473;52.286;20.930;2022-11-02T13:54:05;22.52;;;13.20;;
30723;SDS011;17473;52.286;20.930;2022-11-02T13:56:53;23.60;;;13.88;;
30723;SDS011;17473;52.286;20.930;2022-11-02T13:59:26;23.08;;;13.48;;
30723;SDS011;17473;52.286;20.930;2022-11-02T14:01:59;18.02;;;13.10;;
30723;SDS011;17473;52.286;20.930;2022-11-02T14:04:28;25.08;;;15.20;;
30723;SDS011;17473;52.286;20.930;2022-11-02T14:07:08;25.08;;;14.88;;
30723;SDS011;17473;52.286;20.930;2022-11-02T14:10:05;24.75;;;14.35;;
30723;SDS011;17473;52.286;20.930;2022-11-02T14:12:47;25.42;;;14.73;;
30723;SDS011;17473;52.286;20.930;2022-11-02T14:25:48;32.25;;;15.40;;
30723;SDS011;17473;52.286;20.930;2022-11-02T14:37:04;28.13;;;15.32;;
30723;SDS011;17473;52.286;20.930;2022-11-02T14:45:25;38.47;;;17.77;;
30723;SDS011;17473;52.286;20.930;2022-11-02T14:48:25;35.10;;;17.08;;
30723;SDS011;17473;52.286;20.930;2022-11-02T14:50:59;50.40;;;17.77;;
30723;SDS011;17473;52.286;20.930;2022-11-02T14:53:36;43.15;;;18.38;;
30723;SDS011;17473;52.286;20.930;2022-11-02T14:56:04;46.00;;;17.92;;
30723;SDS011;17473;52.286;20.930;2022-11-02T14:58:32;45.35;;;18.15;;
30723;SDS011;17473;52.286;20.930;2022-11-02T15:01:14;50.28;;;19.30;;
30723;SDS011;17473;52.286;20.930;2022-11-02T15:03:43;33.45;;;17.70;;
30723;SDS011;17473;52.286;20.930;2022-11-02T15:08:49;37.25;;;18.50;;
30723;SDS011;17473;52.286;20.930;2022-11-02T15:19:43;36.17;;;18.42;;
30723;SDS011;17473;52.286;20.930;2022-11-02T15:24:58;31.65;;;18.52;;
30723;SDS011;17473;52.286;20.930;2022-11-02T15:27:38;32.58;;;19.65;;
30723;SDS011;17473;52.286;20.930;2022-11-02T15:30:12;38.13;;;18.63;;
30723;SDS011;17473;52.286;20.930;2022-11-02T15:33:03;33.25;;;17.88;;
30723;SDS011;17473;52.286;20.930;2022-11-02T15:35:32;34.20;;;18.80;;
30723;SDS011;17473;52.286;20.930;2022-11-02T15:38:03;34.63;;;19.77;;
30723;SDS011;17473;52.286;20.930;2022-11-02T15:46:44;40.88;;;21.42;;
30723;SDS011;17473;52.286;20.930;2022-11-02T15:50:16;32.97;;;19.02;;
30723;SDS011;17473;52.286;20.930;2022-11-02T15:55:59;34.03;;;19.50;;
30723;SDS011;17473;52.286;20.930;2022-11-02T16:01:33;40.35;;;20.65;;
30723;SDS011;17473;52.286;20.930;2022-11-02T16:04:01;34.75;;;19.90;;
30723;SDS011;17473;52.286;20.930;2022-11-02T16:12:00;37.45;;;21.48;;
30723;SDS011;17473;52.286;20.930;2022-11-02T16:14:50;39.55;;;21.55;;
30723;SDS011;17473;52.286;20.930;2022-11-02T16:17:38;32.83;;;21.23;;
30723;SDS011;17473;52.286;20.930;2022-11-02T16:20:22;42.22;;;21.40;;
30723;SDS011;17473;52.286;20.930;2022-11-02T16:25:30;49.22;;;21.52;;
30723;SDS011;17473;52.286;20.930;2022-11-02T16:28:10;35.25;;;21.77;;
30723;SDS011;17473;52.286;20.930;2022-11-02T16:36:19;36.92;;;22.50;;
30723;SDS011;17473;52.286;20.930;2022-11-02T16:41:27;42.55;;;22.85;;
30723;SDS011;17473;52.286;20.930;2022-11-02T16:43:57;42.88;;;24.58;;
30723;SDS011;17473;52.286;20.930;2022-11-02T16:46:49;37.92;;;23.00;;
30723;SDS011;17473;52.286;20.930;2022-11-02T16:49:32;37.10;;;21.48;;
30723;SDS011;17473;52.286;20.930;2022-11-02T16:52:21;33.08;;;20.80;;
30723;SDS011;17473;52.286;20.930;2022-11-02T16:54:49;32.78;;;20.52;;
30723;SDS011;17473;52.286;20.930;2022-11-02T16:59:56;37.42;;;20.65;;
30723;SDS011;17473;52.286;20.930;2022-11-02T17:05:21;29.20;;;17.48;;
30723;SDS011;17473;52.286;20.930;2022-11-02T17:07:58;29.17;;;17.40;;
30723;SDS011;17473;52.286;20.930;2022-11-02T17:10:35;26.38;;;15.68;;
30723;SDS011;17473;52.286;20.930;2022-11-02T17:13:04;28.48;;;15.25;;
30723;SDS011;17473;52.286;20.930;2022-11-02T17:15:47;25.58;;;14.30;;
30723;SDS011;17473;52.286;20.930;2022-11-02T17:21:13;26.60;;;12.73;;
30723;SDS011;17473;52.286;20.930;2022-11-02T17:23:41;30.13;;;13.32;;
30723;SDS011;17473;52.286;20.930;2022-11-02T17:28:57;22.58;;;11.82;;
30723;SDS011;17473;52.286;20.930;2022-11-02T17:31:26;20.85;;;11.60;;
30723;SDS011;17473;52.286;20.930;2022-11-02T17:34:01;29.73;;;13.30;;
30723;SDS011;17473;52.286;20.930;2022-11-02T17:36:41;21.38;;;12.48;;
30723;SDS011;17473;52.286;20.930;2022-11-02T17:39:13;24.77;;;13.30;;
30723;SDS011;17473;52.286;20.930;2022-11-02T17:41:43;24.83;;;13.18;;
30723;SDS011;17473;52.286;20.930;2022-11-02T17:44:47;24.88;;;12.10;;
30723;SDS011;17473;52.286;20.930;2022-11-02T17:47:17;29.80;;;14.52;;
30723;SDS011;17473;52.286;20.930;2022-11-02T17:49:44;24.98;;;11.75;;
30723;SDS011;17473;52.286;20.930;2022-11-02T17:52:12;34.75;;;15.43;;
30723;SDS011;17473;52.286;20.930;2022-11-02T17:54:41;30.17;;;15.13;;
30723;SDS011;17473;52.286;20.930;2022-11-02T17:57:11;25.42;;;12.68;;
30723;SDS011;17473;52.286;20.930;2022-11-02T17:59:40;23.63;;;11.05;;
30723;SDS011;17473;52.286;20.930;2022-11-02T18:02:10;27.35;;;10.77;;
30723;SDS011;17473;52.286;20.930;2022-11-02T18:04:40;23.80;;;9.85;;
30723;SDS011;17473;52.286;20.930;2022-11-02T18:07:11;23.40;;;10.73;;
30723;SDS011;17473;52.286;20.930;2022-11-02T18:09:39;22.55;;;9.30;;
30723;SDS011;17473;52.286;20.930;2022-11-02T18:12:08;20.38;;;9.63;;
30723;SDS011;17473;52.286;20.930;2022-11-02T18:15:08;17.48;;;9.15;;
30723;SDS011;17473;52.286;20.930;2022-11-02T18:18:12;24.10;;;9.95;;
30723;SDS011;17473;52.286;20.930;2022-11-02T18:20:46;21.15;;;9.43;;
30723;SDS011;17473;52.286;20.930;2022-11-02T18:23:14;22.73;;;9.55;;
30723;SDS011;17473;52.286;20.930;2022-11-02T18:25:42;19.58;;;10.95;;
30723;SDS011;17473;52.286;20.930;2022-11-02T18:28:09;20.13;;;10.13;;